sensor_id;sensor_type;location;lat;lon;timestamp;P1;durP1;ratioP1;P2;durP2;ratioP2
35434;SDS011;21556;55.782;37.528;2024-01-30T00:01:16;7.93;;;5.57;;
35434;SDS011;21556;55.782;37.528;2024-01-30T00:03:43;7.60;;;5.90;;
35434;SDS011;21556;55.782;37.528;2024-01-30T00:06:12;9.33;;;6.07;;
35434;SDS011;21556;55.782;37.528;2024-01-30T00:08:38;11.50;;;6.60;;
35434;SDS011;21556;55.782;37.528;2024-01-30T00:11:09;8.27;;;5.80;;
35434;SDS011;21556;55.782;37.528;2024-01-30T00:13:38;8.27;;;6.03;;
35434;SDS011;21556;55.782;37.528;2024-01-30T00:16:05;8.03;;;5.17;;
35434;SDS011;21556;55.782;37.528;2024-01-30T00:18:32;9.00;;;6.33;;
35434;SDS011;21556;55.782;37.528;2024-01-30T00:21:00;8.50;;;6.00;;
35434;SDS011;21556;55.782;37.528;2024-01-30T00:23:30;6.90;;;5.23;;
35434;SDS011;21556;55.782;37.528;2024-01-30T00:26:04;10.23;;;6.77;;
35434;SDS011;21556;55.782;37.528;2024-01-30T00:28:32;11.13;;;7.37;;
35434;SDS011;21556;55.782;37.528;2024-01-30T00:31:00;8.57;;;5.63;;
35434;SDS011;21556;55.782;37.528;2024-01-30T00:35:55;8.57;;;6.03;;
35434;SDS011;21556;55.782;37.528;2024-01-30T00:38:21;9.70;;;5.77;;
35434;SDS011;21556;55.782;37.528;2024-01-30T00:40:48;8.77;;;6.67;;
35434;SDS011;21556;55.782;37.528;2024-01-30T00:43:18;7.27;;;4.93;;
35434;SDS011;21556;55.782;37.528;2024-01-30T00:45:57;9.40;;;6.27;;
35434;SDS011;21556;55.782;37.528;2024-01-30T00:48:24;9.37;;;6.90;;
35434;SDS011;21556;55.782;37.528;2024-01-30T00:50:50;10.20;;;6.57;;
35434;SDS011;21556;55.782;37.528;2024-01-30T00:53:16;9.13;;;6.00;;
35434;SDS011;21556;55.782;37.528;2024-01-30T00:55:49;9.20;;;5.57;;
35434;SDS011;21556;55.782;37.528;2024-01-30T00:58:17;10.50;;;6.43;;
35434;SDS011;21556;55.782;37.528;2024-01-30T01:00:45;11.63;;;7.10;;
35434;SDS011;21556;55.782;37.528;2024-01-30T01:03:14;9.27;;;6.63;;
35434;SDS011;21556;55.782;37.528;2024-01-30T01:05:41;11.90;;;7.00;;
35434;SDS011;21556;55.782;37.528;2024-01-30T01:08:09;7.70;;;5.57;;
35434;SDS011;21556;55.782;37.528;2024-01-30T01:10:38;8.73;;;6.20;;
35434;SDS011;21556;55.782;37.528;2024-01-30T01:13:04;8.70;;;5.20;;
35434;SDS011;21556;55.782;37.528;2024-01-30T01:15:33;7.40;;;5.33;;
35434;SDS011;21556;55.782;37.528;2024-01-30T01:18:00;9.53;;;6.40;;
35434;SDS011;21556;55.782;37.528;2024-01-30T01:20:28;9.20;;;6.57;;
35434;SDS011;21556;55.782;37.528;2024-01-30T01:22:54;9.33;;;6.60;;
35434;SDS011;21556;55.782;37.528;2024-01-30T01:25:22;9.07;;;6.10;;
35434;SDS011;21556;55.782;37.528;2024-01-30T01:27:49;7.83;;;5.87;;
35434;SDS011;21556;55.782;37.528;2024-01-30T01:30:17;8.50;;;6.13;;
35434;SDS011;21556;55.782;37.528;2024-01-30T01:32:48;8.43;;;6.50;;
35434;SDS011;21556;55.782;37.528;2024-01-30T01:35:40;10.83;;;7.40;;
35434;SDS011;21556;55.782;37.528;2024-01-30T01:38:07;9.63;;;6.83;;
35434;SDS011;21556;55.782;37.528;2024-01-30T01:40:35;8.83;;;6.07;;
35434;SDS011;21556;55.782;37.528;2024-01-30T01:43:09;7.60;;;6.00;;
35434;SDS011;21556;55.782;37.528;2024-01-30T01:45:35;9.20;;;6.37;;
35434;SDS011;21556;55.782;37.528;2024-01-30T01:48:02;9.17;;;6.20;;
35434;SDS011;21556;55.782;37.528;2024-01-30T01:50:34;10.23;;;6.63;;
35434;SDS011;21556;55.782;37.528;2024-01-30T01:53:03;10.47;;;6.40;;
35434;SDS011;21556;55.782;37.528;2024-01-30T01:55:31;10.35;;;7.03;;
35434;SDS011;21556;55.782;37.528;2024-01-30T01:57:58;9.85;;;6.28;;
35434;SDS011;21556;55.782;37.528;2024-01-30T02:00:27;9.80;;;6.33;;
35434;SDS011;21556;55.782;37.528;2024-01-30T02:02:54;11.23;;;6.60;;
35434;SDS011;21556;55.782;37.528;2024-01-30T02:05:21;10.90;;;7.00;;
35434;SDS011;21556;55.782;37.528;2024-01-30T02:07:47;9.97;;;6.27;;
35434;SDS011;21556;55.782;37.528;2024-01-30T02:10:14;9.17;;;5.87;;
35434;SDS011;21556;55.782;37.528;2024-01-30T02:12:43;8.27;;;4.40;;
35434;SDS011;21556;55.782;37.528;2024-01-30T02:15:13;9.33;;;6.67;;
35434;SDS011;21556;55.782;37.528;2024-01-30T02:17:41;8.70;;;6.13;;
35434;SDS011;21556;55.782;37.528;2024-01-30T02:20:08;10.70;;;6.40;;
35434;SDS011;21556;55.782;37.528;2024-01-30T02:22:44;8.10;;;6.13;;
35434;SDS011;21556;55.782;37.528;2024-01-30T02:25:50;8.43;;;6.07;;
35434;SDS011;21556;55.782;37.528;2024-01-30T02:28:35;9.47;;;6.47;;
35434;SDS011;21556;55.782;37.528;2024-01-30T02:31:26;8.90;;;6.57;;
35434;SDS011;21556;55.782;37.528;2024-01-30T02:34:45;9.53;;;6.47;;
35434;SDS011;21556;55.782;37.528;2024-01-30T02:37:37;10.00;;;6.77;;
35434;SDS011;21556;55.782;37.528;2024-01-30T02:40:04;8.60;;;6.13;;
35434;SDS011;21556;55.782;37.528;2024-01-30T02:42:30;9.63;;;6.57;;
35434;SDS011;21556;55.782;37.528;2024-01-30T02:47:34;12.17;;;7.40;;
35434;SDS011;21556;55.782;37.528;2024-01-30T02:50:00;9.20;;;6.80;;
35434;SDS011;21556;55.782;37.528;2024-01-30T02:52:27;9.27;;;5.93;;
35434;SDS011;21556;55.782;37.528;2024-01-30T02:54:55;10.07;;;6.63;;
35434;SDS011;21556;55.782;37.528;2024-01-30T02:57:22;9.50;;;6.77;;
35434;SDS011;21556;55.782;37.528;2024-01-30T02:59:50;11.07;;;6.73;;
35434;SDS011;21556;55.782;37.528;2024-01-30T03:02:17;9.27;;;6.60;;
35434;SDS011;21556;55.782;37.528;2024-01-30T03:04:43;7.33;;;5.80;;
35434;SDS011;21556;55.782;37.528;2024-01-30T03:07:12;8.57;;;5.73;;
35434;SDS011;21556;55.782;37.528;2024-01-30T03:09:39;8.67;;;5.20;;
35434;SDS011;21556;55.782;37.528;2024-01-30T03:12:13;8.17;;;6.33;;
35434;SDS011;21556;55.782;37.528;2024-01-30T03:14:39;8.33;;;6.37;;
35434;SDS011;21556;55.782;37.528;2024-01-30T03:17:11;9.93;;;5.80;;
35434;SDS011;21556;55.782;37.528;2024-01-30T03:19:39;10.13;;;6.45;;
35434;SDS011;21556;55.782;37.528;2024-01-30T03:22:06;8.43;;;6.70;;
35434;SDS011;21556;55.782;37.528;2024-01-30T03:24:37;10.37;;;6.90;;
35434;SDS011;21556;55.782;37.528;2024-01-30T03:27:07;9.37;;;6.53;;
35434;SDS011;21556;55.782;37.528;2024-01-30T03:29:34;9.60;;;6.50;;
35434;SDS011;21556;55.782;37.528;2024-01-30T03:32:01;8.63;;;5.77;;
35434;SDS011;21556;55.782;37.528;2024-01-30T03:34:36;8.00;;;5.70;;
35434;SDS011;21556;55.782;37.528;2024-01-30T03:37:02;7.53;;;5.53;;
35434;SDS011;21556;55.782;37.528;2024-01-30T03:39:31;7.67;;;4.93;;
35434;SDS011;21556;55.782;37.528;2024-01-30T03:41:58;9.40;;;5.90;;
35434;SDS011;21556;55.782;37.528;2024-01-30T03:44:24;10.17;;;6.40;;
35434;SDS011;21556;55.782;37.528;2024-01-30T03:46:50;10.27;;;6.30;;
35434;SDS011;21556;55.782;37.528;2024-01-30T03:49:16;9.13;;;6.23;;
35434;SDS011;21556;55.782;37.528;2024-01-30T03:51:43;9.13;;;6.30;;
35434;SDS011;21556;55.782;37.528;2024-01-30T03:54:12;9.40;;;5.97;;
35434;SDS011;21556;55.782;37.528;2024-01-30T03:56:39;8.53;;;6.17;;
35434;SDS011;21556;55.782;37.528;2024-01-30T03:59:05;8.43;;;6.37;;
35434;SDS011;21556;55.782;37.528;2024-01-30T04:01:33;10.82;;;6.95;;
35434;SDS011;21556;55.782;37.528;2024-01-30T04:03:59;8.50;;;5.53;;
35434;SDS011;21556;55.782;37.528;2024-01-30T04:06:26;8.93;;;6.13;;
35434;SDS011;21556;55.782;37.528;2024-01-30T04:08:52;9.70;;;6.20;;
35434;SDS011;21556;55.782;37.528;2024-01-30T04:11:18;9.63;;;6.53;;
35434;SDS011;21556;55.782;37.528;2024-01-30T04:13:48;8.93;;;6.17;;
35434;SDS011;21556;55.782;37.528;2024-01-30T04:16:21;10.80;;;6.53;;
35434;SDS011;21556;55.782;37.528;2024-01-30T04:18:48;9.30;;;6.27;;
35434;SDS011;21556;55.782;37.528;2024-01-30T04:21:15;9.97;;;6.33;;
35434;SDS011;21556;55.782;37.528;2024-01-30T04:23:41;8.63;;;5.90;;
35434;SDS011;21556;55.782;37.528;2024-01-30T04:26:10;8.37;;;6.17;;
35434;SDS011;21556;55.782;37.528;2024-01-30T04:28:45;8.73;;;6.47;;
35434;SDS011;21556;55.782;37.528;2024-01-30T04:31:20;9.38;;;5.95;;
35434;SDS011;21556;55.782;37.528;2024-01-30T04:33:49;10.07;;;7.50;;
35434;SDS011;21556;55.782;37.528;2024-01-30T04:36:17;9.20;;;5.88;;
35434;SDS011;21556;55.782;37.528;2024-01-30T04:38:43;7.77;;;5.53;;
35434;SDS011;21556;55.782;37.528;2024-01-30T04:41:13;9.30;;;6.83;;
35434;SDS011;21556;55.782;37.528;2024-01-30T04:43:40;9.55;;;6.03;;
35434;SDS011;21556;55.782;37.528;2024-01-30T04:46:08;7.45;;;4.85;;
35434;SDS011;21556;55.782;37.528;2024-01-30T04:48:40;8.63;;;6.37;;
35434;SDS011;21556;55.782;37.528;2024-01-30T04:51:09;9.33;;;6.47;;
35434;SDS011;21556;55.782;37.528;2024-01-30T04:53:40;11.53;;;6.43;;
35434;SDS011;21556;55.782;37.528;2024-01-30T04:56:11;8.60;;;6.47;;
35434;SDS011;21556;55.782;37.528;2024-01-30T05:01:31;9.87;;;6.13;;
35434;SDS011;21556;55.782;37.528;2024-01-30T05:04:06;9.60;;;6.20;;
35434;SDS011;21556;55.782;37.528;2024-01-30T05:06:48;9.60;;;6.60;;
35434;SDS011;21556;55.782;37.528;2024-01-30T05:09:18;11.33;;;6.30;;
35434;SDS011;21556;55.782;37.528;2024-01-30T05:11:47;10.03;;;6.97;;
35434;SDS011;21556;55.782;37.528;2024-01-30T05:14:18;14.13;;;7.47;;
35434;SDS011;21556;55.782;37.528;2024-01-30T05:16:50;8.73;;;6.83;;
35434;SDS011;21556;55.782;37.528;2024-01-30T05:19:17;11.50;;;5.73;;
35434;SDS011;21556;55.782;37.528;2024-01-30T05:22:01;10.90;;;6.37;;
35434;SDS011;21556;55.782;37.528;2024-01-30T05:24:28;9.07;;;6.07;;
35434;SDS011;21556;55.782;37.528;2024-01-30T05:26:54;11.73;;;6.63;;
35434;SDS011;21556;55.782;37.528;2024-01-30T05:29:23;11.17;;;7.37;;
35434;SDS011;21556;55.782;37.528;2024-01-30T05:31:53;10.33;;;7.07;;
35434;SDS011;21556;55.782;37.528;2024-01-30T05:34:22;8.90;;;7.00;;
35434;SDS011;21556;55.782;37.528;2024-01-30T05:36:51;10.53;;;6.73;;
35434;SDS011;21556;55.782;37.528;2024-01-30T05:39:40;10.83;;;7.57;;
35434;SDS011;21556;55.782;37.528;2024-01-30T05:42:19;11.67;;;7.50;;
35434;SDS011;21556;55.782;37.528;2024-01-30T05:47:24;9.53;;;6.93;;
35434;SDS011;21556;55.782;37.528;2024-01-30T05:49:53;11.87;;;6.83;;
35434;SDS011;21556;55.782;37.528;2024-01-30T05:52:26;11.73;;;7.23;;
35434;SDS011;21556;55.782;37.528;2024-01-30T05:54:55;16.97;;;8.27;;
35434;SDS011;21556;55.782;37.528;2024-01-30T05:57:25;14.40;;;7.13;;
35434;SDS011;21556;55.782;37.528;2024-01-30T05:59:55;12.27;;;8.33;;
35434;SDS011;21556;55.782;37.528;2024-01-30T06:02:30;10.50;;;7.37;;
35434;SDS011;21556;55.782;37.528;2024-01-30T06:05:00;12.63;;;8.90;;
35434;SDS011;21556;55.782;37.528;2024-01-30T06:07:29;10.43;;;6.90;;
35434;SDS011;21556;55.782;37.528;2024-01-30T06:09:58;12.07;;;7.67;;
35434;SDS011;21556;55.782;37.528;2024-01-30T06:12:30;13.90;;;8.50;;
35434;SDS011;21556;55.782;37.528;2024-01-30T06:14:58;8.65;;;6.90;;
35434;SDS011;21556;55.782;37.528;2024-01-30T06:17:32;11.33;;;7.63;;
35434;SDS011;21556;55.782;37.528;2024-01-30T06:20:01;14.33;;;8.27;;
35434;SDS011;21556;55.782;37.528;2024-01-30T06:22:31;14.30;;;8.23;;
35434;SDS011;21556;55.782;37.528;2024-01-30T06:24:59;13.32;;;8.57;;
35434;SDS011;21556;55.782;37.528;2024-01-30T06:27:34;12.03;;;7.67;;
35434;SDS011;21556;55.782;37.528;2024-01-30T06:30:02;11.40;;;6.03;;
35434;SDS011;21556;55.782;37.528;2024-01-30T06:32:30;12.75;;;7.78;;
35434;SDS011;21556;55.782;37.528;2024-01-30T06:35:02;14.60;;;8.00;;
35434;SDS011;21556;55.782;37.528;2024-01-30T06:37:29;13.47;;;7.73;;
35434;SDS011;21556;55.782;37.528;2024-01-30T06:39:59;11.80;;;8.27;;
35434;SDS011;21556;55.782;37.528;2024-01-30T06:42:30;12.27;;;8.20;;
35434;SDS011;21556;55.782;37.528;2024-01-30T06:45:02;12.77;;;8.53;;
35434;SDS011;21556;55.782;37.528;2024-01-30T06:47:32;16.00;;;9.23;;
35434;SDS011;21556;55.782;37.528;2024-01-30T06:49:59;11.63;;;8.57;;
35434;SDS011;21556;55.782;37.528;2024-01-30T06:52:29;13.73;;;8.70;;
35434;SDS011;21556;55.782;37.528;2024-01-30T06:54:56;15.60;;;9.17;;
35434;SDS011;21556;55.782;37.528;2024-01-30T06:57:22;12.50;;;7.37;;
35434;SDS011;21556;55.782;37.528;2024-01-30T06:59:48;14.43;;;8.87;;
35434;SDS011;21556;55.782;37.528;2024-01-30T07:02:14;13.70;;;8.63;;
35434;SDS011;21556;55.782;37.528;2024-01-30T07:04:44;12.63;;;7.53;;
35434;SDS011;21556;55.782;37.528;2024-01-30T07:07:10;14.67;;;7.03;;
35434;SDS011;21556;55.782;37.528;2024-01-30T07:09:38;12.63;;;9.48;;
35434;SDS011;21556;55.782;37.528;2024-01-30T07:12:05;14.83;;;8.53;;
35434;SDS011;21556;55.782;37.528;2024-01-30T07:14:31;17.00;;;9.20;;
35434;SDS011;21556;55.782;37.528;2024-01-30T07:17:01;15.10;;;9.07;;
35434;SDS011;21556;55.782;37.528;2024-01-30T07:19:27;16.00;;;9.10;;
35434;SDS011;21556;55.782;37.528;2024-01-30T07:21:54;14.17;;;8.87;;
35434;SDS011;21556;55.782;37.528;2024-01-30T07:24:20;13.73;;;8.37;;
35434;SDS011;21556;55.782;37.528;2024-01-30T07:26:46;16.33;;;9.37;;
35434;SDS011;21556;55.782;37.528;2024-01-30T07:29:12;14.10;;;8.67;;
35434;SDS011;21556;55.782;37.528;2024-01-30T07:31:38;21.53;;;8.80;;
35434;SDS011;21556;55.782;37.528;2024-01-30T07:34:14;18.07;;;10.67;;
35434;SDS011;21556;55.782;37.528;2024-01-30T07:36:40;14.07;;;9.70;;
35434;SDS011;21556;55.782;37.528;2024-01-30T07:39:10;14.23;;;9.63;;
35434;SDS011;21556;55.782;37.528;2024-01-30T07:41:36;16.50;;;9.33;;
35434;SDS011;21556;55.782;37.528;2024-01-30T07:44:02;21.10;;;9.40;;
35434;SDS011;21556;55.782;37.528;2024-01-30T07:46:28;16.63;;;9.37;;
35434;SDS011;21556;55.782;37.528;2024-01-30T07:48:54;13.17;;;8.30;;
35434;SDS011;21556;55.782;37.528;2024-01-30T07:51:21;12.90;;;9.33;;
35434;SDS011;21556;55.782;37.528;2024-01-30T07:53:51;17.17;;;9.57;;
35434;SDS011;21556;55.782;37.528;2024-01-30T07:56:17;12.90;;;9.07;;
35434;SDS011;21556;55.782;37.528;2024-01-30T07:58:43;14.27;;;9.70;;
35434;SDS011;21556;55.782;37.528;2024-01-30T08:01:10;16.97;;;9.40;;
35434;SDS011;21556;55.782;37.528;2024-01-30T08:03:36;15.40;;;8.80;;
35434;SDS011;21556;55.782;37.528;2024-01-30T08:06:03;16.47;;;9.57;;
35434;SDS011;21556;55.782;37.528;2024-01-30T08:08:29;13.70;;;9.20;;
35434;SDS011;21556;55.782;37.528;2024-01-30T08:10:55;15.30;;;9.50;;
35434;SDS011;21556;55.782;37.528;2024-01-30T08:13:24;14.68;;;8.68;;
35434;SDS011;21556;55.782;37.528;2024-01-30T08:15:50;15.93;;;9.70;;
35434;SDS011;21556;55.782;37.528;2024-01-30T08:18:16;15.43;;;9.07;;
35434;SDS011;21556;55.782;37.528;2024-01-30T08:20:42;16.30;;;9.38;;
35434;SDS011;21556;55.782;37.528;2024-01-30T08:23:08;16.43;;;10.27;;
35434;SDS011;21556;55.782;37.528;2024-01-30T08:25:36;16.02;;;9.15;;
35434;SDS011;21556;55.782;37.528;2024-01-30T08:28:02;15.73;;;9.07;;
35434;SDS011;21556;55.782;37.528;2024-01-30T08:30:29;17.63;;;9.87;;
35434;SDS011;21556;55.782;37.528;2024-01-30T08:32:55;13.17;;;8.07;;
35434;SDS011;21556;55.782;37.528;2024-01-30T08:35:21;16.90;;;10.05;;
35434;SDS011;21556;55.782;37.528;2024-01-30T08:37:48;14.83;;;10.10;;
35434;SDS011;21556;55.782;37.528;2024-01-30T08:40:14;17.57;;;11.23;;
35434;SDS011;21556;55.782;37.528;2024-01-30T08:45:09;22.20;;;9.77;;
35434;SDS011;21556;55.782;37.528;2024-01-30T08:47:36;13.87;;;9.70;;
35434;SDS011;21556;55.782;37.528;2024-01-30T08:50:05;13.32;;;9.48;;
35434;SDS011;21556;55.782;37.528;2024-01-30T08:52:37;16.50;;;9.27;;
35434;SDS011;21556;55.782;37.528;2024-01-30T08:55:03;16.00;;;9.43;;
35434;SDS011;21556;55.782;37.528;2024-01-30T08:57:30;15.93;;;9.53;;
35434;SDS011;21556;55.782;37.528;2024-01-30T08:59:57;20.27;;;9.63;;
35434;SDS011;21556;55.782;37.528;2024-01-30T09:02:43;19.08;;;9.02;;
35434;SDS011;21556;55.782;37.528;2024-01-30T09:05:10;14.93;;;8.85;;
35434;SDS011;21556;55.782;37.528;2024-01-30T09:07:40;16.83;;;9.70;;
35434;SDS011;21556;55.782;37.528;2024-01-30T09:10:06;20.03;;;8.87;;
35434;SDS011;21556;55.782;37.528;2024-01-30T09:12:39;14.27;;;7.93;;
35434;SDS011;21556;55.782;37.528;2024-01-30T09:15:08;12.87;;;7.93;;
35434;SDS011;21556;55.782;37.528;2024-01-30T09:17:34;16.00;;;8.80;;
35434;SDS011;21556;55.782;37.528;2024-01-30T09:20:01;17.87;;;9.53;;
35434;SDS011;21556;55.782;37.528;2024-01-30T09:22:29;20.58;;;9.52;;
35434;SDS011;21556;55.782;37.528;2024-01-30T09:25:02;17.13;;;9.40;;
35434;SDS011;21556;55.782;37.528;2024-01-30T09:27:29;15.77;;;9.00;;
35434;SDS011;21556;55.782;37.528;2024-01-30T09:29:55;15.02;;;8.70;;
35434;SDS011;21556;55.782;37.528;2024-01-30T09:32:21;20.87;;;9.17;;
35434;SDS011;21556;55.782;37.528;2024-01-30T09:34:47;16.48;;;9.90;;
35434;SDS011;21556;55.782;37.528;2024-01-30T09:37:14;15.33;;;10.30;;
35434;SDS011;21556;55.782;37.528;2024-01-30T09:39:45;15.73;;;9.38;;
35434;SDS011;21556;55.782;37.528;2024-01-30T09:45:06;17.77;;;8.97;;
35434;SDS011;21556;55.782;37.528;2024-01-30T09:47:36;12.67;;;9.27;;
35434;SDS011;21556;55.782;37.528;2024-01-30T09:50:08;17.40;;;10.30;;
35434;SDS011;21556;55.782;37.528;2024-01-30T09:52:35;13.73;;;8.52;;
35434;SDS011;21556;55.782;37.528;2024-01-30T09:55:03;14.60;;;8.93;;
35434;SDS011;21556;55.782;37.528;2024-01-30T09:57:32;30.80;;;10.93;;
35434;SDS011;21556;55.782;37.528;2024-01-30T09:59:58;18.97;;;9.50;;
35434;SDS011;21556;55.782;37.528;2024-01-30T10:02:26;8.43;;;5.57;;
35434;SDS011;21556;55.782;37.528;2024-01-30T10:04:52;16.63;;;9.30;;
35434;SDS011;21556;55.782;37.528;2024-01-30T10:07:19;16.60;;;8.77;;
35434;SDS011;21556;55.782;37.528;2024-01-30T10:09:45;15.02;;;9.27;;
35434;SDS011;21556;55.782;37.528;2024-01-30T10:12:18;19.63;;;9.10;;
35434;SDS011;21556;55.782;37.528;2024-01-30T10:14:50;12.80;;;9.43;;
35434;SDS011;21556;55.782;37.528;2024-01-30T10:17:16;17.13;;;8.80;;
35434;SDS011;21556;55.782;37.528;2024-01-30T10:19:42;15.07;;;9.43;;
35434;SDS011;21556;55.782;37.528;2024-01-30T10:22:29;11.93;;;8.05;;
35434;SDS011;21556;55.782;37.528;2024-01-30T10:25:00;16.13;;;8.65;;
35434;SDS011;21556;55.782;37.528;2024-01-30T10:27:29;14.33;;;8.60;;
35434;SDS011;21556;55.782;37.528;2024-01-30T10:30:15;19.37;;;8.87;;
35434;SDS011;21556;55.782;37.528;2024-01-30T10:32:41;15.73;;;9.25;;
35434;SDS011;21556;55.782;37.528;2024-01-30T10:35:10;19.33;;;10.17;;
35434;SDS011;21556;55.782;37.528;2024-01-30T10:37:43;15.43;;;8.57;;
35434;SDS011;21556;55.782;37.528;2024-01-30T10:40:13;15.57;;;9.13;;
35434;SDS011;21556;55.782;37.528;2024-01-30T10:45:09;11.73;;;8.23;;
35434;SDS011;21556;55.782;37.528;2024-01-30T10:47:40;13.38;;;9.07;;
35434;SDS011;21556;55.782;37.528;2024-01-30T10:50:12;15.93;;;9.73;;
35434;SDS011;21556;55.782;37.528;2024-01-30T10:52:39;15.30;;;9.03;;
35434;SDS011;21556;55.782;37.528;2024-01-30T10:57:39;16.73;;;9.40;;
35434;SDS011;21556;55.782;37.528;2024-01-30T11:00:10;16.60;;;8.97;;
35434;SDS011;21556;55.782;37.528;2024-01-30T11:02:44;15.50;;;9.63;;
35434;SDS011;21556;55.782;37.528;2024-01-30T11:05:14;15.43;;;9.07;;
35434;SDS011;21556;55.782;37.528;2024-01-30T11:07:54;18.48;;;9.32;;
35434;SDS011;21556;55.782;37.528;2024-01-30T11:10:22;15.75;;;9.43;;
35434;SDS011;21556;55.782;37.528;2024-01-30T11:13:10;17.40;;;9.20;;
35434;SDS011;21556;55.782;37.528;2024-01-30T11:15:39;15.43;;;10.40;;
35434;SDS011;21556;55.782;37.528;2024-01-30T11:18:08;15.90;;;10.07;;
35434;SDS011;21556;55.782;37.528;2024-01-30T11:20:36;13.65;;;9.35;;
35434;SDS011;21556;55.782;37.528;2024-01-30T11:23:02;16.60;;;9.88;;
35434;SDS011;21556;55.782;37.528;2024-01-30T11:25:33;11.38;;;8.68;;
35434;SDS011;21556;55.782;37.528;2024-01-30T11:28:01;14.85;;;9.00;;
35434;SDS011;21556;55.782;37.528;2024-01-30T11:30:31;13.00;;;7.43;;
35434;SDS011;21556;55.782;37.528;2024-01-30T11:33:08;8.77;;;6.20;;
35434;SDS011;21556;55.782;37.528;2024-01-30T11:35:37;14.23;;;9.38;;
35434;SDS011;21556;55.782;37.528;2024-01-30T11:38:06;14.32;;;8.40;;
35434;SDS011;21556;55.782;37.528;2024-01-30T11:43:10;13.15;;;8.20;;
35434;SDS011;21556;55.782;37.528;2024-01-30T11:45:37;13.93;;;8.50;;
35434;SDS011;21556;55.782;37.528;2024-01-30T11:48:05;18.33;;;9.73;;
35434;SDS011;21556;55.782;37.528;2024-01-30T11:50:33;12.10;;;8.95;;
35434;SDS011;21556;55.782;37.528;2024-01-30T11:53:02;16.10;;;9.75;;
35434;SDS011;21556;55.782;37.528;2024-01-30T11:55:30;10.63;;;6.45;;
35434;SDS011;21556;55.782;37.528;2024-01-30T11:57:58;14.30;;;9.45;;
35434;SDS011;21556;55.782;37.528;2024-01-30T12:00:26;12.73;;;8.80;;
35434;SDS011;21556;55.782;37.528;2024-01-30T12:02:53;18.73;;;9.45;;
35434;SDS011;21556;55.782;37.528;2024-01-30T12:05:54;18.00;;;9.63;;
35434;SDS011;21556;55.782;37.528;2024-01-30T12:08:24;14.98;;;9.45;;
35434;SDS011;21556;55.782;37.528;2024-01-30T12:10:55;14.50;;;9.60;;
35434;SDS011;21556;55.782;37.528;2024-01-30T12:13:28;15.77;;;9.30;;
35434;SDS011;21556;55.782;37.528;2024-01-30T12:16:00;15.38;;;10.05;;
35434;SDS011;21556;55.782;37.528;2024-01-30T12:18:39;14.98;;;10.30;;
35434;SDS011;21556;55.782;37.528;2024-01-30T12:21:05;16.98;;;10.18;;
35434;SDS011;21556;55.782;37.528;2024-01-30T12:23:34;11.65;;;8.80;;
35434;SDS011;21556;55.782;37.528;2024-01-30T12:26:01;16.77;;;10.30;;
35434;SDS011;21556;55.782;37.528;2024-01-30T12:28:29;14.90;;;9.57;;
35434;SDS011;21556;55.782;37.528;2024-01-30T12:30:56;13.17;;;9.50;;
35434;SDS011;21556;55.782;37.528;2024-01-30T12:33:37;17.92;;;10.80;;
35434;SDS011;21556;55.782;37.528;2024-01-30T12:36:17;16.77;;;10.43;;
35434;SDS011;21556;55.782;37.528;2024-01-30T12:38:45;16.92;;;10.63;;
35434;SDS011;21556;55.782;37.528;2024-01-30T12:41:23;16.90;;;10.15;;
35434;SDS011;21556;55.782;37.528;2024-01-30T12:44:08;15.10;;;9.15;;
35434;SDS011;21556;55.782;37.528;2024-01-30T12:46:40;17.27;;;10.70;;
35434;SDS011;21556;55.782;37.528;2024-01-30T12:49:13;18.73;;;12.00;;
35434;SDS011;21556;55.782;37.528;2024-01-30T12:51:50;17.33;;;11.20;;
35434;SDS011;21556;55.782;37.528;2024-01-30T12:54:45;15.10;;;9.93;;
35434;SDS011;21556;55.782;37.528;2024-01-30T12:57:15;16.85;;;10.70;;
35434;SDS011;21556;55.782;37.528;2024-01-30T12:59:52;17.17;;;10.77;;
35434;SDS011;21556;55.782;37.528;2024-01-30T13:02:26;15.98;;;10.48;;
35434;SDS011;21556;55.782;37.528;2024-01-30T13:05:10;16.20;;;11.07;;
35434;SDS011;21556;55.782;37.528;2024-01-30T13:07:41;17.97;;;10.53;;
35434;SDS011;21556;55.782;37.528;2024-01-30T13:10:08;16.30;;;9.13;;
35434;SDS011;21556;55.782;37.528;2024-01-30T13:12:37;16.73;;;9.67;;
35434;SDS011;21556;55.782;37.528;2024-01-30T13:15:14;14.87;;;9.00;;
35434;SDS011;21556;55.782;37.528;2024-01-30T13:17:47;15.40;;;10.23;;
35434;SDS011;21556;55.782;37.528;2024-01-30T13:20:21;15.80;;;9.63;;
35434;SDS011;21556;55.782;37.528;2024-01-30T13:23:06;17.73;;;9.50;;
35434;SDS011;21556;55.782;37.528;2024-01-30T13:25:48;17.52;;;9.95;;
35434;SDS011;21556;55.782;37.528;2024-01-30T13:28:28;14.85;;;9.32;;
35434;SDS011;21556;55.782;37.528;2024-01-30T13:31:03;16.00;;;10.00;;
35434;SDS011;21556;55.782;37.528;2024-01-30T13:33:56;16.50;;;10.00;;
35434;SDS011;21556;55.782;37.528;2024-01-30T13:36:32;17.70;;;10.52;;
35434;SDS011;21556;55.782;37.528;2024-01-30T13:42:43;16.10;;;9.32;;
35434;SDS011;21556;55.782;37.528;2024-01-30T13:45:18;16.80;;;9.55;;
35434;SDS011;21556;55.782;37.528;2024-01-30T13:47:51;15.73;;;9.98;;
35434;SDS011;21556;55.782;37.528;2024-01-30T13:50:32;14.27;;;9.13;;
35434;SDS011;21556;55.782;37.528;2024-01-30T13:53:22;14.07;;;9.23;;
35434;SDS011;21556;55.782;37.528;2024-01-30T13:55:48;15.60;;;9.00;;
35434;SDS011;21556;55.782;37.528;2024-01-30T13:58:21;14.23;;;10.23;;
35434;SDS011;21556;55.782;37.528;2024-01-30T14:01:37;15.80;;;9.47;;
35434;SDS011;21556;55.782;37.528;2024-01-30T14:04:08;18.10;;;10.47;;
35434;SDS011;21556;55.782;37.528;2024-01-30T14:07:17;18.13;;;10.63;;
35434;SDS011;21556;55.782;37.528;2024-01-30T14:10:27;16.60;;;9.50;;
35434;SDS011;21556;55.782;37.528;2024-01-30T14:12:53;16.42;;;10.80;;
35434;SDS011;21556;55.782;37.528;2024-01-30T14:15:41;15.17;;;9.63;;
35434;SDS011;21556;55.782;37.528;2024-01-30T14:18:40;23.95;;;10.32;;
35434;SDS011;21556;55.782;37.528;2024-01-30T14:21:20;16.97;;;9.93;;
35434;SDS011;21556;55.782;37.528;2024-01-30T14:24:09;14.00;;;9.50;;
35434;SDS011;21556;55.782;37.528;2024-01-30T14:30:24;16.52;;;9.68;;
35434;SDS011;21556;55.782;37.528;2024-01-30T14:33:04;15.50;;;9.50;;
35434;SDS011;21556;55.782;37.528;2024-01-30T14:39:05;15.17;;;9.63;;
35434;SDS011;21556;55.782;37.528;2024-01-30T14:45:44;16.07;;;9.73;;
35434;SDS011;21556;55.782;37.528;2024-01-30T14:56:43;14.48;;;9.20;;
35434;SDS011;21556;55.782;37.528;2024-01-30T15:00:17;14.43;;;8.68;;
35434;SDS011;21556;55.782;37.528;2024-01-30T15:05:57;17.83;;;9.87;;
35434;SDS011;21556;55.782;37.528;2024-01-30T15:08:44;17.03;;;10.93;;
35434;SDS011;21556;55.782;37.528;2024-01-30T15:11:24;17.53;;;10.47;;
35434;SDS011;21556;55.782;37.528;2024-01-30T15:14:17;19.10;;;9.68;;
35434;SDS011;21556;55.782;37.528;2024-01-30T15:17:22;18.55;;;10.75;;
35434;SDS011;21556;55.782;37.528;2024-01-30T15:22:47;14.90;;;10.67;;
35434;SDS011;21556;55.782;37.528;2024-01-30T15:25:38;18.80;;;11.33;;
35434;SDS011;21556;55.782;37.528;2024-01-30T15:28:18;20.58;;;10.93;;
35434;SDS011;21556;55.782;37.528;2024-01-30T15:31:06;17.10;;;10.93;;
35434;SDS011;21556;55.782;37.528;2024-01-30T15:41:20;16.30;;;10.63;;
35434;SDS011;21556;55.782;37.528;2024-01-30T15:44:24;17.53;;;10.83;;
35434;SDS011;21556;55.782;37.528;2024-01-30T15:47:53;17.15;;;11.02;;
35434;SDS011;21556;55.782;37.528;2024-01-30T15:50:32;17.50;;;10.30;;